Time;durP1;ratioP1;P1;durP2;ratioP2;P2;SDS_P1;SDS_P2;PMS_P1;PMS_P2;Temp;Humidity;BMP_temperature;BMP_pressure;BME280_temperature;BME280_humidity;BME280_pressure;Samples;Min_cycle;Max_cycle;Signal;HPM_P1;HPM_P2
2023/06/19 00:02:01;;;;;;;;;;;26.30;55.40;;;;;;5087156;27;42858;-75
2023/06/19 00:04:26;;;;;;;;;;;26.30;55.90;;;;;;5103617;27;42849;-77
2023/06/19 00:06:52;;;;;;;;;;;26.30;55.40;;;;;;5104083;27;43142;-75
2023/06/19 00:09:18;;;;;;;;;;;26.40;55.90;;;;;;5104466;27;43736;-75
2023/06/19 00:11:43;;;;;;;;;;;26.30;55.30;;;;;;5102137;27;42862;-75
2023/06/19 00:14:09;;;;;;;;;;;26.30;55.80;;;;;;5105372;27;43547;-75
2023/06/19 00:16:35;;;;;;;;;;;26.30;55.80;;;;;;5104842;27;42920;-79
2023/06/19 00:19:03;;;;;;;;;;;26.30;55.40;;;;;;5105199;27;44472;-77
2023/06/19 00:21:29;;;;;;;;;;;26.20;55.40;;;;;;5105093;27;43029;-82
2023/06/19 00:23:54;;;;;;;;;;;26.30;55.40;;;;;;5105608;27;43449;-77
2023/06/19 00:26:25;;;;;;;;;;;26.30;55.40;;;;;;5091238;27;42783;-77
2023/06/19 00:28:51;;;;;;;;;;;26.30;55.40;;;;;;5084235;27;43560;-75
2023/06/19 00:31:16;;;;;;;;;;;26.30;55.40;;;;;;5084323;27;43190;-76
2023/06/19 00:33:43;;;;;;;;;;;26.20;55.40;;;;;;5084567;28;43222;-76
2023/06/19 00:36:12;;;;;;;;;;;26.20;55.40;;;;;;5084898;27;43171;-75
2023/06/19 00:38:38;;;;;;;;;;;26.20;55.50;;;;;;5098330;27;43662;-75
2023/06/19 00:41:04;;;;;;;;;;;26.20;55.50;;;;;;5104900;27;43093;-83
2023/06/19 00:43:30;;;;;;;;;;;26.20;55.50;;;;;;5104134;27;43527;-75
2023/06/19 00:45:56;;;;;;;;;;;26.20;55.50;;;;;;5103946;27;43047;-75
2023/06/19 00:48:21;;;;;;;;;;;26.30;56.10;;;;;;5086197;27;44689;-75
2023/06/19 00:50:48;;;;;;;;;;;26.20;55.50;;;;;;5105449;27;42947;-75
2023/06/19 00:53:14;;;;;;;;;;;26.20;55.50;;;;;;5103177;27;42974;-75
2023/06/19 00:55:39;;;;;;;;;;;26.30;56.00;;;;;;5105439;27;42909;-75
2023/06/19 00:58:05;;;;;;;;;;;26.20;55.30;;;;;;5105308;27;43591;-76
2023/06/19 01:00:31;;;;;;;;;;;26.20;55.30;;;;;;5105489;27;43021;-75
2023/06/19 01:02:56;;;;;;;;;;;26.20;55.30;;;;;;5105078;27;43897;-76
2023/06/19 01:05:22;;;;;;;;;;;26.20;55.80;;;;;;5098281;27;42962;-75
2023/06/19 01:07:52;;;;;;;;;;;26.20;55.40;;;;;;5084323;27;43339;-75
2023/06/19 01:10:24;;;;;;;;;;;26.20;55.90;;;;;;5092631;27;42929;-75
2023/06/19 01:12:56;;;;;;;;;;;26.20;55.90;;;;;;5105106;27;42928;-75
2023/06/19 01:15:22;;;;;;;;;;;26.20;55.90;;;;;;5104542;27;42945;-75
2023/06/19 01:17:48;;;;;;;;;;;26.20;55.90;;;;;;5104860;27;43288;-75
2023/06/19 01:20:14;;;;;;;;;;;26.20;55.50;;;;;;5104532;27;42996;-75
2023/06/19 01:22:43;;;;;;;;;;;26.20;56.00;;;;;;5102928;27;43466;-77
2023/06/19 01:25:09;;;;;;;;;;;26.20;55.60;;;;;;5104736;27;43039;-77
2023/06/19 01:27:34;;;;;;;;;;;26.20;55.70;;;;;;5104791;27;42965;-76
2023/06/19 01:30:01;;;;;;;;;;;26.20;55.80;;;;;;5104613;27;42969;-75
2023/06/19 01:32:29;;;;;;;;;;;26.20;55.80;;;;;;5104751;27;43564;-76
2023/06/19 01:34:57;;;;;;;;;;;26.20;56.20;;;;;;5103392;27;42979;-84
2023/06/19 01:37:27;;;;;;;;;;;26.20;56.20;;;;;;5104103;27;44026;-89
2023/06/19 01:39:53;;;;;;;;;;;26.20;55.70;;;;;;5104450;27;43001;-88
2023/06/19 01:42:19;;;;;;;;;;;26.20;56.10;;;;;;5104155;27;42941;-79
2023/06/19 01:44:44;;;;;;;;;;;26.10;55.60;;;;;;5103021;27;42934;-76
2023/06/19 01:47:11;;;;;;;;;;;26.20;55.70;;;;;;5104700;27;43552;-75
2023/06/19 01:49:37;;;;;;;;;;;26.10;55.70;;;;;;5104254;27;42945;-77
2023/06/19 01:52:02;;;;;;;;;;;26.10;55.60;;;;;;5105610;27;42996;-75
2023/06/19 01:54:28;;;;;;;;;;;26.20;56.20;;;;;;5108357;27;42862;-76
2023/06/19 01:56:53;;;;;;;;;;;26.20;55.70;;;;;;5088768;27;43395;-75
2023/06/19 01:59:19;;;;;;;;;;;26.10;56.10;;;;;;5107180;27;43040;-76
2023/06/19 02:01:44;;;;;;;;;;;26.10;55.60;;;;;;5107169;27;44104;-77
2023/06/19 02:04:10;;;;;;;;;;;26.20;55.60;;;;;;5107513;27;42921;-75
2023/06/19 02:06:35;;;;;;;;;;;26.20;56.10;;;;;;5091138;27;42846;-74
2023/06/19 02:09:01;;;;;;;;;;;26.20;56.10;;;;;;5087343;28;43071;-83
2023/06/19 02:11:26;;;;;;;;;;;26.10;55.60;;;;;;5086847;28;42941;-76
2023/06/19 02:13:52;;;;;;;;;;;26.20;56.20;;;;;;5086581;28;42922;-75
2023/06/19 02:16:18;;;;;;;;;;;26.20;56.30;;;;;;5086206;27;42931;-75
2023/06/19 02:18:43;;;;;;;;;;;26.10;55.70;;;;;;5086710;27;42861;-75
2023/06/19 02:21:09;;;;;;;;;;;26.20;56.30;;;;;;5086788;28;43097;-75
2023/06/19 02:23:34;;;;;;;;;;;26.10;56.20;;;;;;5086751;28;43009;-75
2023/06/19 02:26:00;;;;;;;;;;;26.20;55.80;;;;;;5086369;27;43683;-76
2023/06/19 02:28:25;;;;;;;;;;;26.10;55.60;;;;;;5086773;28;42969;-76
2023/06/19 02:30:52;;;;;;;;;;;26.10;56.10;;;;;;5086492;28;42894;-76
2023/06/19 02:33:17;;;;;;;;;;;26.20;56.10;;;;;;5091145;27;42935;-89
2023/06/19 02:35:44;;;;;;;;;;;26.10;55.50;;;;;;5106528;27;43701;-75
2023/06/19 02:38:10;;;;;;;;;;;26.10;55.50;;;;;;5107165;27;42876;-75
2023/06/19 02:40:35;;;;;;;;;;;26.10;56.00;;;;;;5107171;27;43416;-75
2023/06/19 02:43:01;;;;;;;;;;;26.10;56.00;;;;;;5106731;27;42900;-77
2023/06/19 02:45:26;;;;;;;;;;;26.20;56.60;;;;;;5100239;27;43000;-75
2023/06/19 02:47:53;;;;;;;;;;;26.10;55.50;;;;;;5086645;28;42933;-78
2023/06/19 02:50:18;;;;;;;;;;;26.20;56.00;;;;;;5086334;28;43446;-75
2023/06/19 02:52:44;;;;;;;;;;;26.10;55.40;;;;;;5086199;28;42853;-89
2023/06/19 02:55:09;;;;;;;;;;;26.10;55.40;;;;;;5085537;27;43969;-76
2023/06/19 02:57:35;;;;;;;;;;;26.20;56.00;;;;;;5085251;28;42951;-79
2023/06/19 03:00:00;;;;;;;;;;;26.10;55.40;;;;;;5086033;27;42754;-81
2023/06/19 03:02:26;;;;;;;;;;;26.10;55.90;;;;;;5086006;28;43051;-78
2023/06/19 03:04:52;;;;;;;;;;;26.10;55.90;;;;;;5085855;27;42911;-90
2023/06/19 03:07:17;;;;;;;;;;;26.10;55.90;;;;;;5086133;27;42967;-75
2023/06/19 03:09:43;;;;;;;;;;;26.10;55.40;;;;;;5086216;27;42925;-76
2023/06/19 03:12:09;;;;;;;;;;;26.10;55.50;;;;;;5086439;28;42869;-78
2023/06/19 03:14:34;;;;;;;;;;;26.10;55.50;;;;;;5085758;27;44494;-76
2023/06/19 03:17:00;;;;;;;;;;;26.10;55.60;;;;;;5086214;27;42949;-76
2023/06/19 03:19:25;;;;;;;;;;;26.10;56.10;;;;;;5085244;28;43439;-88
2023/06/19 03:21:51;;;;;;;;;;;26.10;55.40;;;;;;5084138;28;43036;-75
2023/06/19 03:24:16;;;;;;;;;;;26.10;55.90;;;;;;5085565;28;43530;-76
2023/06/19 03:26:42;;;;;;;;;;;26.10;55.40;;;;;;5085243;27;42949;-77
2023/06/19 03:29:08;;;;;;;;;;;26.10;55.90;;;;;;5085381;28;43685;-78
2023/06/19 03:31:33;;;;;;;;;;;26.10;55.40;;;;;;5085387;27;42936;-75
2023/06/19 03:33:59;;;;;;;;;;;26.10;55.30;;;;;;5085904;28;42918;-76
2023/06/19 03:36:24;;;;;;;;;;;26.10;55.30;;;;;;5095691;27;43564;-76
2023/06/19 03:38:50;;;;;;;;;;;26.30;56.00;;;;;;5105772;27;43538;-75
2023/06/19 03:41:15;;;;;;;;;;;26.10;55.30;;;;;;5104188;27;43213;-75
2023/06/19 03:43:41;;;;;;;;;;;26.10;55.80;;;;;;5105682;27;43800;-75
2023/06/19 03:46:06;;;;;;;;;;;26.10;55.40;;;;;;5103708;27;43074;-75
2023/06/19 03:48:32;;;;;;;;;;;26.10;55.50;;;;;;5105647;27;43492;-76
2023/06/19 03:50:58;;;;;;;;;;;26.10;55.50;;;;;;5105173;27;42831;-75
2023/06/19 03:53:24;;;;;;;;;;;26.10;55.50;;;;;;5105836;27;43982;-75
2023/06/19 03:55:49;;;;;;;;;;;26.10;56.00;;;;;;5105616;27;42810;-75
2023/06/19 03:58:15;;;;;;;;;;;26.10;55.40;;;;;;5105590;27;43054;-76
2023/06/19 04:00:41;;;;;;;;;;;26.10;55.80;;;;;;5105304;27;43218;-75
2023/06/19 04:03:06;;;;;;;;;;;26.10;55.30;;;;;;5105420;27;42914;-75
2023/06/19 04:05:32;;;;;;;;;;;26.10;55.30;;;;;;5086982;27;42951;-83
2023/06/19 04:07:57;;;;;;;;;;;26.10;55.20;;;;;;5105875;27;42870;-76
2023/06/19 04:10:23;;;;;;;;;;;26.10;55.60;;;;;;5105209;27;42894;-76
2023/06/19 04:12:48;;;;;;;;;;;26.10;55.10;;;;;;5105229;27;43321;-78
2023/06/19 04:15:14;;;;;;;;;;;26.10;55.10;;;;;;5099063;27;42991;-76
2023/06/19 04:17:39;;;;;;;;;;;26.10;55.60;;;;;;5094450;27;42988;-76
2023/06/19 04:20:11;;;;;;;;;;;26.10;55.30;;;;;;5104093;27;42950;-79
2023/06/19 04:22:38;;;;;;;;;;;26.10;55.40;;;;;;5105042;27;43081;-75
2023/06/19 04:25:04;;;;;;;;;;;26.10;55.50;;;;;;5103767;27;42972;-76
2023/06/19 04:27:29;;;;;;;;;;;26.10;55.40;;;;;;5104191;27;43637;-75
2023/06/19 04:29:55;;;;;;;;;;;26.10;55.30;;;;;;5104559;27;42910;-85
2023/06/19 04:32:20;;;;;;;;;;;26.10;55.70;;;;;;5102781;27;43652;-75
2023/06/19 04:34:46;;;;;;;;;;;26.10;55.00;;;;;;5101414;27;42949;-82
2023/06/19 04:37:12;;;;;;;;;;;26.10;54.90;;;;;;5082120;27;42904;-79
2023/06/19 04:39:37;;;;;;;;;;;26.10;54.90;;;;;;5104614;27;43964;-75
2023/06/19 04:42:03;;;;;;;;;;;26.10;54.70;;;;;;5102828;27;43057;-78
2023/06/19 04:44:33;;;;;;;;;;;26.10;55.10;;;;;;5104052;27;42951;-75
2023/06/19 04:47:00;;;;;;;;;;;26.10;55.20;;;;;;5103052;27;43531;-75
2023/06/19 04:49:30;;;;;;;;;;;26.10;54.80;;;;;;5098694;27;42972;-77
2023/06/19 04:51:56;;;;;;;;;;;26.10;55.30;;;;;;5100311;27;43439;-77
2023/06/19 04:54:21;;;;;;;;;;;26.10;55.60;;;;;;5103327;27;42994;-75
2023/06/19 04:56:47;;;;;;;;;;;26.10;55.20;;;;;;5102248;27;43312;-75
2023/06/19 04:59:12;;;;;;;;;;;26.10;55.90;;;;;;5101178;27;43136;-78
2023/06/19 05:01:40;;;;;;;;;;;26.10;55.90;;;;;;5100495;27;42925;-75
2023/06/19 05:04:05;;;;;;;;;;;26.10;56.00;;;;;;5099351;27;43051;-75
2023/06/19 05:06:31;;;;;;;;;;;26.10;55.60;;;;;;5100646;27;43658;-76
2023/06/19 05:08:57;;;;;;;;;;;26.10;55.70;;;;;;5102922;27;42965;-81
2023/06/19 05:11:22;;;;;;;;;;;26.10;55.60;;;;;;5102021;27;43482;-76
2023/06/19 05:13:48;;;;;;;;;;;26.10;56.30;;;;;;5101764;27;43016;-75
2023/06/19 05:16:16;;;;;;;;;;;26.10;56.20;;;;;;5096734;27;43618;-77
2023/06/19 05:18:42;;;;;;;;;;;26.10;55.60;;;;;;5100971;27;43024;-77
2023/06/19 05:21:08;;;;;;;;;;;26.10;55.40;;;;;;5101281;27;42998;-77
2023/06/19 05:23:33;;;;;;;;;;;26.10;55.90;;;;;;5084889;27;42985;-75
2023/06/19 05:25:59;;;;;;;;;;;26.10;55.80;;;;;;5100450;27;43362;-76
2023/06/19 05:28:24;;;;;;;;;;;26.10;55.10;;;;;;5103802;27;43116;-75
2023/06/19 05:30:50;;;;;;;;;;;26.10;55.60;;;;;;5105887;27;43307;-76
2023/06/19 05:33:17;;;;;;;;;;;26.10;55.60;;;;;;5104662;27;43005;-75
2023/06/19 05:35:43;;;;;;;;;;;26.10;55.50;;;;;;5102021;27;44511;-79
2023/06/19 05:38:09;;;;;;;;;;;26.10;55.50;;;;;;5107732;27;43444;-77
2023/06/19 05:40:34;;;;;;;;;;;26.10;54.90;;;;;;5105408;27;43116;-75
2023/06/19 05:43:00;;;;;;;;;;;26.10;55.40;;;;;;5106771;27;42925;-75
2023/06/19 05:45:25;;;;;;;;;;;26.10;54.90;;;;;;5105209;27;43224;-76
2023/06/19 05:47:51;;;;;;;;;;;26.20;54.90;;;;;;5101581;27;43108;-75
2023/06/19 05:50:16;;;;;;;;;;;26.20;55.40;;;;;;5106554;27;43905;-77
2023/06/19 05:52:43;;;;;;;;;;;26.20;55.50;;;;;;5105623;27;42944;-75
2023/06/19 05:55:10;;;;;;;;;;;26.20;55.60;;;;;;5107551;27;42988;-77
2023/06/19 05:57:35;;;;;;;;;;;26.20;55.10;;;;;;5107223;27;43091;-75
2023/06/19 06:00:01;;;;;;;;;;;26.20;55.10;;;;;;5105887;27;43700;-75
2023/06/19 06:02:28;;;;;;;;;;;26.20;55.10;;;;;;5105935;27;43106;-76
2023/06/19 06:04:53;;;;;;;;;;;26.20;55.60;;;;;;5103059;27;42956;-74
2023/06/19 06:07:19;;;;;;;;;;;26.20;55.50;;;;;;5103809;27;42992;-75
2023/06/19 06:09:44;;;;;;;;;;;26.20;55.00;;;;;;5107387;27;42989;-75
2023/06/19 06:12:10;;;;;;;;;;;26.20;55.50;;;;;;5106396;27;42921;-76
2023/06/19 06:14:35;;;;;;;;;;;26.20;55.00;;;;;;5107248;27;44049;-83
2023/06/19 06:17:02;;;;;;;;;;;26.20;55.00;;;;;;5106993;27;42873;-74
2023/06/19 06:19:28;;;;;;;;;;;26.20;55.00;;;;;;5101629;27;44365;-77
2023/06/19 06:21:53;;;;;;;;;;;26.20;55.00;;;;;;5102776;27;42921;-76
2023/06/19 06:24:19;;;;;;;;;;;26.20;55.40;;;;;;5103162;27;42922;-76
2023/06/19 06:26:45;;;;;;;;;;;26.20;55.40;;;;;;5106288;27;43059;-75
2023/06/19 06:29:10;;;;;;;;;;;26.20;54.90;;;;;;5104053;27;43488;-76
2023/06/19 06:31:37;;;;;;;;;;;26.10;54.90;;;;;;5106012;27;43046;-76
2023/06/19 06:34:03;;;;;;;;;;;26.20;55.40;;;;;;5106748;27;42982;-76
2023/06/19 06:36:29;;;;;;;;;;;26.20;55.40;;;;;;5106618;27;43014;-76
2023/06/19 06:38:54;;;;;;;;;;;26.20;55.40;;;;;;5105494;27;43504;-77
2023/06/19 06:41:20;;;;;;;;;;;26.20;55.30;;;;;;5106205;27;42921;-76
2023/06/19 06:43:45;;;;;;;;;;;26.20;55.30;;;;;;5088247;27;44626;-76
2023/06/19 06:46:11;;;;;;;;;;;26.20;55.30;;;;;;5105602;27;43186;-76
2023/06/19 06:48:37;;;;;;;;;;;26.20;55.30;;;;;;5106665;27;43508;-75
2023/06/19 06:51:02;;;;;;;;;;;26.20;55.20;;;;;;5107153;27;43001;-76
2023/06/19 06:53:28;;;;;;;;;;;26.20;55.20;;;;;;5107021;27;43454;-75
2023/06/19 06:55:54;;;;;;;;;;;26.20;55.10;;;;;;5107058;27;42910;-75
2023/06/19 06:58:19;;;;;;;;;;;26.20;54.50;;;;;;5106878;27;43736;-76
2023/06/19 07:00:45;;;;;;;;;;;26.20;54.50;;;;;;5107170;27;42987;-75
2023/06/19 07:03:10;;;;;;;;;;;26.20;54.90;;;;;;5106699;27;42933;-75
2023/06/19 07:05:36;;;;;;;;;;;26.20;54.40;;;;;;5107309;27;43034;-75
2023/06/19 07:08:02;;;;;;;;;;;26.20;54.40;;;;;;5089298;27;42987;-77
2023/06/19 07:10:28;;;;;;;;;;;26.20;54.40;;;;;;5106812;27;43003;-75
2023/06/19 07:12:53;;;;;;;;;;;26.20;54.90;;;;;;5106823;27;43007;-75
2023/06/19 07:15:19;;;;;;;;;;;26.20;54.40;;;;;;5107618;27;42941;-80
2023/06/19 07:17:45;;;;;;;;;;;26.20;54.40;;;;;;5107201;27;43750;-75
2023/06/19 07:20:11;;;;;;;;;;;26.20;54.80;;;;;;5106411;27;43044;-75
2023/06/19 07:22:36;;;;;;;;;;;26.20;54.40;;;;;;5106098;27;42742;-75
2023/06/19 07:25:03;;;;;;;;;;;26.20;54.40;;;;;;5106309;27;42952;-75
2023/06/19 07:27:29;;;;;;;;;;;26.20;54.40;;;;;;5106197;27;43003;-75
2023/06/19 07:29:54;;;;;;;;;;;26.20;54.40;;;;;;5106765;27;42938;-77
2023/06/19 07:32:20;;;;;;;;;;;26.20;54.40;;;;;;5107036;27;42913;-75
2023/06/19 07:34:46;;;;;;;;;;;26.30;54.40;;;;;;5106398;27;42995;-75
2023/06/19 07:37:17;;;;;;;;;;;26.30;54.40;;;;;;5106747;27;43418;-77
2023/06/19 07:39:49;;;;;;;;;;;26.30;54.40;;;;;;5087464;27;43053;-75
2023/06/19 07:42:15;;;;;;;;;;;26.30;54.40;;;;;;5105842;27;43632;-76
2023/06/19 07:44:41;;;;;;;;;;;26.30;54.40;;;;;;5106238;27;42946;-83
2023/06/19 07:47:07;;;;;;;;;;;26.30;54.90;;;;;;5106185;27;43628;-76
2023/06/19 07:49:32;;;;;;;;;;;26.30;54.80;;;;;;5105675;27;42942;-76
2023/06/19 07:51:58;;;;;;;;;;;26.40;54.30;;;;;;5106544;27;43853;-75
2023/06/19 07:54:23;;;;;;;;;;;26.40;54.30;;;;;;5106605;27;42965;-79
2023/06/19 07:56:49;;;;;;;;;;;26.30;54.30;;;;;;5106011;27;42692;-75
2023/06/19 07:59:15;;;;;;;;;;;26.40;54.30;;;;;;5106501;27;42763;-78
2023/06/19 08:01:40;;;;;;;;;;;26.40;54.30;;;;;;5087375;27;44591;-75
2023/06/19 08:04:06;;;;;;;;;;;26.40;54.80;;;;;;5106475;27;42838;-75
2023/06/19 08:06:31;;;;;;;;;;;26.40;54.90;;;;;;5106214;27;42965;-75
2023/06/19 08:08:57;;;;;;;;;;;26.40;54.40;;;;;;5106634;27;43087;-81
2023/06/19 08:11:22;;;;;;;;;;;26.40;54.40;;;;;;5105651;27;43016;-75
2023/06/19 08:13:48;;;;;;;;;;;26.40;54.30;;;;;;5087324;27;43213;-75
2023/06/19 08:16:14;;;;;;;;;;;26.40;54.30;;;;;;5106195;27;42997;-75
2023/06/19 08:18:39;;;;;;;;;;;26.40;54.20;;;;;;5106255;27;42870;-75
2023/06/19 08:21:05;;;;;;;;;;;26.40;54.70;;;;;;5106241;27;42946;-76
2023/06/19 08:23:30;;;;;;;;;;;26.40;54.20;;;;;;5106239;27;43151;-75
2023/06/19 08:25:55;;;;;;;;;;;26.40;54.10;;;;;;5105783;27;42950;-82
2023/06/19 08:28:21;;;;;;;;;;;26.40;54.10;;;;;;5106464;27;43008;-75
2023/06/19 08:30:46;;;;;;;;;;;26.40;54.00;;;;;;5105883;27;42977;-74
2023/06/19 08:33:15;;;;;;;;;;;26.40;54.00;;;;;;5105754;27;43055;-83
2023/06/19 08:35:40;;;;;;;;;;;26.40;54.40;;;;;;5105397;27;42926;-75
2023/06/19 08:38:06;;;;;;;;;;;26.40;54.90;;;;;;5105548;27;42986;-76
2023/06/19 08:40:33;;;;;;;;;;;26.40;53.90;;;;;;5105552;27;42943;-75
2023/06/19 08:42:58;;;;;;;;;;;26.40;53.90;;;;;;5105957;27;43018;-80
2023/06/19 08:45:25;;;;;;;;;;;26.40;53.90;;;;;;5087079;27;43290;-79
2023/06/19 08:47:57;;;;;;;;;;;26.40;53.90;;;;;;5105895;27;42988;-82
2023/06/19 08:50:22;;;;;;;;;;;26.40;53.80;;;;;;5104876;27;43794;-76
2023/06/19 08:52:48;;;;;;;;;;;26.40;53.90;;;;;;5105351;27;42897;-75
2023/06/19 08:55:15;;;;;;;;;;;;;;;;;;5085167;27;45193;-75
2023/06/19 08:57:40;;;;;;;;;;;26.50;53.90;;;;;;5086605;27;43000;-76
2023/06/19 09:00:07;;;;;;;;;;;28.00;54.90;;;;;;5105213;27;43404;-75
2023/06/19 09:02:37;;;;;;;;;;;26.50;54.00;;;;;;5109075;27;42979;-75
2023/06/19 09:05:16;;;;;;;;;;;26.50;54.00;;;;;;5089908;27;44424;-75
2023/06/19 09:07:42;;;;;;;;;;;26.50;54.00;;;;;;5108872;27;42941;-74
2023/06/19 09:10:12;;;;;;;;;;;26.50;54.00;;;;;;5108896;27;42957;-79
2023/06/19 09:12:38;;;;;;;;;;;26.50;53.90;;;;;;5108908;27;42953;-77
2023/06/19 09:15:11;;;;;;;;;;;26.50;53.90;;;;;;5109009;27;43846;-74
2023/06/19 09:17:36;;;;;;;;;;;26.50;54.40;;;;;;5109193;27;42798;-76
2023/06/19 09:20:04;;;;;;;;;;;26.50;53.80;;;;;;5108217;27;43680;-75
2023/06/19 09:22:30;;;;;;;;;;;26.40;53.70;;;;;;5090281;27;43003;-75
2023/06/19 09:24:59;;;;;;;;;;;26.50;54.30;;;;;;5109012;27;43381;-76
2023/06/19 09:27:25;;;;;;;;;;;26.50;53.80;;;;;;5090459;27;42933;-75
2023/06/19 09:29:50;;;;;;;;;;;26.50;53.70;;;;;;5108038;27;43690;-74
2023/06/19 09:32:23;;;;;;;;;;;26.50;53.70;;;;;;5107954;27;42946;-75
2023/06/19 09:34:51;;;;;;;;;;;26.50;53.70;;;;;;5108379;27;43043;-75
2023/06/19 09:37:36;;;;;;;;;;;26.50;53.70;;;;;;5108906;27;43123;-79
2023/06/19 09:40:12;;;;;;;;;;;26.50;53.60;;;;;;5107927;27;43016;-75
2023/06/19 09:42:38;;;;;;;;;;;26.50;53.60;;;;;;5107737;27;42961;-76
2023/06/19 09:45:08;;;;;;;;;;;26.50;54.00;;;;;;5108227;27;43097;-76
2023/06/19 09:47:37;;;;;;;;;;;26.50;54.50;;;;;;5108184;27;43054;-75
2023/06/19 09:50:03;;;;;;;;;;;26.50;53.50;;;;;;5108455;27;43788;-75
2023/06/19 09:52:29;;;;;;;;;;;26.50;53.90;;;;;;5108781;27;42855;-76
2023/06/19 09:54:55;;;;;;;;;;;26.50;53.90;;;;;;5107072;27;42849;-75
2023/06/19 09:57:20;;;;;;;;;;;26.50;53.80;;;;;;5107781;27;42879;-78
2023/06/19 09:59:49;;;;;;;;;;;26.50;53.80;;;;;;5108346;27;42901;-77
2023/06/19 10:02:15;;;;;;;;;;;26.50;53.30;;;;;;5108047;27;42721;-75
2023/06/19 10:04:47;;;;;;;;;;;26.50;53.70;;;;;;5108012;27;42890;-75
2023/06/19 10:07:20;;;;;;;;;;;26.50;53.70;;;;;;5107519;27;42851;-75
2023/06/19 10:09:58;;;;;;;;;;;26.50;53.20;;;;;;5089594;27;44297;-83
2023/06/19 10:12:33;;;;;;;;;;;23.10;51.70;;;;;;5097320;27;43305;-78
2023/06/19 10:15:07;;;;;;;;;;;26.50;53.60;;;;;;5089337;27;43645;-77
2023/06/19 10:17:33;;;;;;;;;;;26.50;53.50;;;;;;5093200;27;43000;-75
2023/06/19 10:19:59;;;;;;;;;;;26.50;53.10;;;;;;5088227;27;44347;-75
2023/06/19 10:22:29;;;;;;;;;;;26.50;53.10;;;;;;5107106;27;42870;-77
2023/06/19 10:24:55;;;;;;;;;;;26.50;53.10;;;;;;5106955;27;43006;-82
2023/06/19 10:27:22;;;;;;;;;;;26.50;53.20;;;;;;5106545;27;43042;-76
2023/06/19 10:29:52;;;;;;;;;;;26.50;53.20;;;;;;5107031;27;43165;-77
2023/06/19 10:32:18;;;;;;;;;;;26.60;53.30;;;;;;5107435;27;42971;-75
2023/06/19 10:34:47;;;;;;;;;;;26.50;53.20;;;;;;5107341;27;43776;-75
2023/06/19 10:37:12;;;;;;;;;;;26.50;53.60;;;;;;5107492;27;42906;-76
2023/06/19 10:39:38;;;;;;;;;;;26.50;53.20;;;;;;5107242;27;43036;-75
2023/06/19 10:42:07;;;;;;;;;;;26.50;53.30;;;;;;5104728;27;42854;-76
2023/06/19 10:44:33;;;;;;;;;;;26.50;53.80;;;;;;5106175;27;42973;-76
2023/06/19 10:46:58;;;;;;;;;;;26.60;53.40;;;;;;5106783;27;42863;-75
2023/06/19 10:49:24;;;;;;;;;;;26.60;53.40;;;;;;5104227;27;44078;-76
2023/06/19 10:51:50;;;;;;;;;;;26.50;53.40;;;;;;5106750;27;43008;-81
2023/06/19 10:54:16;;;;;;;;;;;26.60;53.50;;;;;;5106751;27;43070;-84
2023/06/19 10:56:43;;;;;;;;;;;26.60;53.50;;;;;;5105885;27;43028;-76
2023/06/19 10:59:10;;;;;;;;;;;26.60;53.50;;;;;;5106784;27;43147;-76
2023/06/19 11:01:36;;;;;;;;;;;26.60;53.60;;;;;;5084778;27;43138;-75
2023/06/19 11:04:11;;;;;;;;;;;26.60;53.60;;;;;;5104551;27;43496;-75
2023/06/19 11:06:37;;;;;;;;;;;26.60;53.60;;;;;;5086140;27;42911;-78
2023/06/19 11:09:04;;;;;;;;;;;26.60;53.70;;;;;;5085028;27;44144;-75
2023/06/19 11:11:37;;;;;;;;;;;26.60;53.70;;;;;;5087783;27;42956;-77
2023/06/19 11:14:03;;;;;;;;;;;26.60;53.70;;;;;;5105406;27;43010;-75
2023/06/19 11:16:29;;;;;;;;;;;26.60;53.70;;;;;;5105709;27;42963;-76
2023/06/19 11:18:57;;;;;;;;;;;26.50;53.70;;;;;;5106271;27;43927;-78
2023/06/19 11:21:39;;;;;;;;;;;26.60;54.20;;;;;;5106312;27;42934;-76
2023/06/19 11:24:05;;;;;;;;;;;26.60;53.80;;;;;;5102872;27;44521;-76
2023/06/19 11:26:49;;;;;;;;;;;26.60;54.20;;;;;;5105827;27;43262;-78
2023/06/19 11:29:18;;;;;;;;;;;26.60;53.80;;;;;;5085320;27;63680;-83
2023/06/19 11:31:44;;;;;;;;;;;26.60;53.80;;;;;;5103205;27;42958;-75
2023/06/19 11:34:09;;;;;;;;;;;26.60;54.30;;;;;;5105995;27;43704;-78
2023/06/19 11:36:38;;;;;;;;;;;26.60;53.90;;;;;;5106445;27;42983;-76
2023/06/19 11:39:06;;;;;;;;;;;26.60;54.30;;;;;;5103766;27;43000;-76
2023/06/19 11:41:32;;;;;;;;;;;26.60;54.40;;;;;;5105945;27;42982;-79
2023/06/19 11:43:58;;;;;;;;;;;26.60;54.00;;;;;;5105624;27;42957;-76
2023/06/19 11:46:28;;;;;;;;;;;26.60;54.40;;;;;;5102893;27;42989;-79
2023/06/19 11:48:53;;;;;;;;;;;26.60;54.00;;;;;;5105983;27;43176;-75
2023/06/19 11:51:19;;;;;;;;;;;26.60;54.10;;;;;;5086602;27;43148;-76
2023/06/19 11:53:44;;;;;;;;;;;26.60;54.10;;;;;;5105153;27;43505;-76
2023/06/19 11:56:10;;;;;;;;;;;26.60;54.70;;;;;;5089813;27;42976;-75
2023/06/19 11:58:35;;;;;;;;;;;26.60;54.20;;;;;;5105140;27;42961;-77
2023/06/19 12:01:01;;;;;;;;;;;26.60;54.20;;;;;;5104944;27;42947;-83
2023/06/19 12:03:26;;;;;;;;;;;26.60;54.20;;;;;;5103005;27;44225;-76
2023/06/19 12:05:52;;;;;;;;;;;26.60;54.80;;;;;;5104387;27;43012;-75
2023/06/19 12:08:17;;;;;;;;;;;26.60;54.80;;;;;;5104799;27;43831;-76
2023/06/19 12:10:43;;;;;;;;;;;26.60;54.30;;;;;;5106034;27;42898;-76
2023/06/19 12:13:09;;;;;;;;;;;26.60;54.30;;;;;;5104964;27;43434;-75
2023/06/19 12:15:34;;;;;;;;;;;26.60;54.40;;;;;;5105002;27;43115;-76
2023/06/19 12:18:00;;;;;;;;;;;26.60;54.40;;;;;;5104585;27;43905;-83
2023/06/19 12:20:25;;;;;;;;;;;26.60;54.90;;;;;;5104803;27;43585;-75
2023/06/19 12:22:51;;;;;;;;;;;26.60;54.90;;;;;;5103910;27;43613;-84
2023/06/19 12:25:16;;;;;;;;;;;26.60;54.60;;;;;;5105367;27;42852;-78
2023/06/19 12:27:42;;;;;;;;;;;26.70;54.70;;;;;;5105736;27;43006;-77
2023/06/19 12:30:08;;;;;;;;;;;26.60;55.10;;;;;;5104633;27;42915;-75
2023/06/19 12:32:33;;;;;;;;;;;26.70;55.20;;;;;;5104994;27;43722;-75
2023/06/19 12:34:59;;;;;;;;;;;26.60;54.70;;;;;;5104433;27;43021;-75
2023/06/19 12:37:24;;;;;;;;;;;26.60;55.20;;;;;;5104641;27;43782;-80
2023/06/19 12:39:50;;;;;;;;;;;26.60;54.80;;;;;;5105391;27;42969;-74
2023/06/19 12:42:16;;;;;;;;;;;26.60;54.90;;;;;;5104904;27;43076;-74
2023/06/19 12:44:41;;;;;;;;;;;26.70;55.40;;;;;;5104244;27;43078;-75
2023/06/19 12:47:07;;;;;;;;;;;26.70;55.50;;;;;;5105208;27;43520;-75
2023/06/19 12:49:33;;;;;;;;;;;26.60;55.00;;;;;;5104950;27;43171;-93
2023/06/19 12:51:59;;;;;;;;;;;26.60;55.00;;;;;;5105179;27;43617;-74
2023/06/19 12:54:25;;;;;;;;;;;26.70;55.50;;;;;;5105529;27;42879;-74
2023/06/19 12:56:50;;;;;;;;;;;26.70;55.50;;;;;;5104082;27;43705;-74
2023/06/19 12:59:16;;;;;;;;;;;26.50;55.40;;;;;;5104780;27;42941;-73
2023/06/19 13:01:42;;;;;;;;;;;26.60;55.50;;;;;;5105414;27;42937;-74
2023/06/19 13:04:07;;;;;;;;;;;26.70;55.40;;;;;;5105420;27;42987;-73
2023/06/19 13:06:33;;;;;;;;;;;26.70;55.40;;;;;;5105249;27;43493;-87
2023/06/19 13:08:58;;;;;;;;;;;26.70;55.30;;;;;;5105529;27;42996;-74
2023/06/19 13:11:24;;;;;;;;;;;26.60;54.80;;;;;;5104253;27;42858;-77
2023/06/19 13:13:49;;;;;;;;;;;26.70;55.30;;;;;;5103970;27;42872;-75
2023/06/19 13:16:15;;;;;;;;;;;26.70;55.30;;;;;;5104038;27;43004;-92
2023/06/19 13:18:41;;;;;;;;;;;26.70;54.80;;;;;;5104219;27;43077;-75
2023/06/19 13:21:07;;;;;;;;;;;26.60;54.70;;;;;;5104694;27;43592;-74
2023/06/19 13:23:33;;;;;;;;;;;26.70;55.20;;;;;;5103893;27;42986;-78
2023/06/19 13:25:58;;;;;;;;;;;26.70;55.10;;;;;;5104516;27;42883;-74
2023/06/19 13:28:24;;;;;;;;;;;26.70;55.00;;;;;;5104545;27;43246;-75
2023/06/19 13:30:50;;;;;;;;;;;26.70;55.00;;;;;;5104141;27;43483;-76
2023/06/19 13:33:16;;;;;;;;;;;26.70;54.90;;;;;;5104825;27;42871;-75
2023/06/19 13:35:42;;;;;;;;;;;26.60;54.30;;;;;;5104766;27;43043;-74
2023/06/19 13:38:07;;;;;;;;;;;26.60;54.20;;;;;;5103967;27;42899;-75
2023/06/19 13:40:33;;;;;;;;;;;26.70;54.20;;;;;;5103772;27;45149;-79
2023/06/19 13:42:59;;;;;;;;;;;26.70;54.20;;;;;;5103732;27;43124;-75
2023/06/19 13:45:25;;;;;;;;;;;26.70;54.60;;;;;;5103184;27;42981;-74
2023/06/19 13:47:50;;;;;;;;;;;26.70;54.70;;;;;;5105687;27;43254;-76
2023/06/19 13:50:18;;;;;;;;;;;26.70;53.90;;;;;;5106979;27;43426;-74
2023/06/19 13:52:45;;;;;;;;;;;26.70;53.80;;;;;;5104854;27;42985;-74
2023/06/19 13:55:10;;;;;;;;;;;26.70;53.60;;;;;;5109337;27;43933;-74
2023/06/19 13:57:37;;;;;;;;;;;26.60;53.60;;;;;;5098371;27;43102;-74
2023/06/19 14:00:03;;;;;;;;;;;26.70;54.30;;;;;;5105447;27;43023;-90
2023/06/19 14:02:28;;;;;;;;;;;26.60;53.60;;;;;;5106626;27;43078;-76
2023/06/19 14:04:54;;;;;;;;;;;26.70;54.10;;;;;;5107505;27;42870;-74
2023/06/19 14:07:21;;;;;;;;;;;26.60;53.50;;;;;;5106544;27;42920;-87
2023/06/19 14:09:48;;;;;;;;;;;26.60;53.40;;;;;;5106653;27;42966;-74
2023/06/19 14:12:13;;;;;;;;;;;26.60;53.40;;;;;;5088441;27;43057;-74
2023/06/19 14:14:39;;;;;;;;;;;26.70;53.40;;;;;;5107613;27;43681;-74